sensor_id;sensor_type;location;lat;lon;timestamp;temperature;humidity
6792;DHT22;3433;48.730;9.108;2023-07-13T00:01:57;22.70;80.90
6792;DHT22;3433;48.730;9.108;2023-07-13T00:04:44;22.60;80.90
6792;DHT22;3433;48.730;9.108;2023-07-13T00:07:31;22.60;80.80
6792;DHT22;3433;48.730;9.108;2023-07-13T00:10:20;22.50;80.80
6792;DHT22;3433;48.730;9.108;2023-07-13T00:13:09;22.50;81.00
6792;DHT22;3433;48.730;9.108;2023-07-13T00:15:56;22.50;81.00
6792;DHT22;3433;48.730;9.108;2023-07-13T00:18:45;22.50;80.70
6792;DHT22;3433;48.730;9.108;2023-07-13T00:21:32;22.50;80.80
6792;DHT22;3433;48.730;9.108;2023-07-13T00:24:19;22.40;80.50
6792;DHT22;3433;48.730;9.108;2023-07-13T00:27:11;22.40;80.90
6792;DHT22;3433;48.730;9.108;2023-07-13T00:29:58;22.30;80.50
6792;DHT22;3433;48.730;9.108;2023-07-13T00:32:45;22.10;80.80
6792;DHT22;3433;48.730;9.108;2023-07-13T00:35:33;22.30;80.50
6792;DHT22;3433;48.730;9.108;2023-07-13T00:38:21;22.30;81.20
6792;DHT22;3433;48.730;9.108;2023-07-13T00:41:08;22.20;80.40
6792;DHT22;3433;48.730;9.108;2023-07-13T00:43:57;22.20;80.50
6792;DHT22;3433;48.730;9.108;2023-07-13T00:46:44;22.10;80.60
6792;DHT22;3433;48.730;9.108;2023-07-13T00:49:34;22.10;80.30
6792;DHT22;3433;48.730;9.108;2023-07-13T00:52:22;22.00;80.20
6792;DHT22;3433;48.730;9.108;2023-07-13T00:55:11;22.00;80.30
6792;DHT22;3433;48.730;9.108;2023-07-13T00:57:59;22.00;80.50
6792;DHT22;3433;48.730;9.108;2023-07-13T01:00:50;22.00;80.20
6792;DHT22;3433;48.730;9.108;2023-07-13T01:03:38;21.80;80.00
6792;DHT22;3433;48.730;9.108;2023-07-13T01:06:26;21.90;80.30
6792;DHT22;3433;48.730;9.108;2023-07-13T01:09:14;21.90;80.40
6792;DHT22;3433;48.730;9.108;2023-07-13T01:12:02;21.80;80.30
6792;DHT22;3433;48.730;9.108;2023-07-13T01:14:57;21.80;80.50
6792;DHT22;3433;48.730;9.108;2023-07-13T01:17:45;21.80;80.50
6792;DHT22;3433;48.730;9.108;2023-07-13T01:20:33;21.90;80.40
6792;DHT22;3433;48.730;9.108;2023-07-13T01:23:24;21.90;80.70
6792;DHT22;3433;48.730;9.108;2023-07-13T01:26:12;21.70;80.40
6792;DHT22;3433;48.730;9.108;2023-07-13T01:28:59;21.70;80.20
6792;DHT22;3433;48.730;9.108;2023-07-13T01:31:47;21.80;80.40
6792;DHT22;3433;48.730;9.108;2023-07-13T01:34:34;21.80;80.80
6792;DHT22;3433;48.730;9.108;2023-07-13T01:37:24;21.80;80.50
6792;DHT22;3433;48.730;9.108;2023-07-13T01:40:13;21.70;80.80
6792;DHT22;3433;48.730;9.108;2023-07-13T01:43:00;21.60;80.50
6792;DHT22;3433;48.730;9.108;2023-07-13T01:45:48;21.60;80.60
6792;DHT22;3433;48.730;9.108;2023-07-13T01:48:35;21.50;80.60
6792;DHT22;3433;48.730;9.108;2023-07-13T01:51:24;21.40;80.60
6792;DHT22;3433;48.730;9.108;2023-07-13T01:54:11;21.30;80.60
6792;DHT22;3433;48.730;9.108;2023-07-13T01:57:00;21.30;80.80
6792;DHT22;3433;48.730;9.108;2023-07-13T01:59:47;21.20;80.80
6792;DHT22;3433;48.730;9.108;2023-07-13T02:02:34;21.10;80.90
6792;DHT22;3433;48.730;9.108;2023-07-13T02:05:22;21.10;81.00
6792;DHT22;3433;48.730;9.108;2023-07-13T02:08:09;21.00;81.10
6792;DHT22;3433;48.730;9.108;2023-07-13T02:10:57;21.00;81.20
6792;DHT22;3433;48.730;9.108;2023-07-13T02:13:45;21.00;81.40
6792;DHT22;3433;48.730;9.108;2023-07-13T02:16:32;20.90;81.50
6792;DHT22;3433;48.730;9.108;2023-07-13T02:19:20;20.90;81.80
6792;DHT22;3433;48.730;9.108;2023-07-13T02:22:07;20.80;82.40
6792;DHT22;3433;48.730;9.108;2023-07-13T02:24:55;20.80;81.80
6792;DHT22;3433;48.730;9.108;2023-07-13T02:27:42;20.70;82.00
6792;DHT22;3433;48.730;9.108;2023-07-13T02:30:31;20.70;81.90
6792;DHT22;3433;48.730;9.108;2023-07-13T02:33:18;20.60;81.80
6792;DHT22;3433;48.730;9.108;2023-07-13T02:36:05;20.60;81.90
6792;DHT22;3433;48.730;9.108;2023-07-13T02:38:53;20.50;81.80
6792;DHT22;3433;48.730;9.108;2023-07-13T02:41:40;20.50;82.60
6792;DHT22;3433;48.730;9.108;2023-07-13T02:44:28;20.40;81.60
6792;DHT22;3433;48.730;9.108;2023-07-13T02:47:16;20.40;82.00
6792;DHT22;3433;48.730;9.108;2023-07-13T02:50:04;20.40;81.90
6792;DHT22;3433;48.730;9.108;2023-07-13T02:52:51;20.30;82.00
6792;DHT22;3433;48.730;9.108;2023-07-13T02:55:38;20.30;82.00
6792;DHT22;3433;48.730;9.108;2023-07-13T02:58:26;20.30;82.80
6792;DHT22;3433;48.730;9.108;2023-07-13T03:01:13;20.20;82.30
6792;DHT22;3433;48.730;9.108;2023-07-13T03:04:06;20.10;82.20
6792;DHT22;3433;48.730;9.108;2023-07-13T03:06:53;20.10;82.40
6792;DHT22;3433;48.730;9.108;2023-07-13T03:09:43;20.10;82.50
6792;DHT22;3433;48.730;9.108;2023-07-13T03:12:30;20.10;83.00
6792;DHT22;3433;48.730;9.108;2023-07-13T03:15:17;20.00;82.90
6792;DHT22;3433;48.730;9.108;2023-07-13T03:18:05;20.00;82.80
6792;DHT22;3433;48.730;9.108;2023-07-13T03:20:53;20.00;83.00
6792;DHT22;3433;48.730;9.108;2023-07-13T03:23:41;20.00;83.20
6792;DHT22;3433;48.730;9.108;2023-07-13T03:26:28;20.00;83.50
6792;DHT22;3433;48.730;9.108;2023-07-13T03:29:15;20.00;83.60
6792;DHT22;3433;48.730;9.108;2023-07-13T03:32:03;20.00;83.30
6792;DHT22;3433;48.730;9.108;2023-07-13T03:34:50;20.00;83.60
6792;DHT22;3433;48.730;9.108;2023-07-13T03:37:39;20.10;84.40
6792;DHT22;3433;48.730;9.108;2023-07-13T03:40:28;20.10;84.20
6792;DHT22;3433;48.730;9.108;2023-07-13T03:43:15;20.10;83.80
6792;DHT22;3433;48.730;9.108;2023-07-13T03:46:02;20.00;84.00
6792;DHT22;3433;48.730;9.108;2023-07-13T03:48:50;20.10;83.80
6792;DHT22;3433;48.730;9.108;2023-07-13T03:51:37;20.10;84.00
6792;DHT22;3433;48.730;9.108;2023-07-13T03:54:26;20.10;84.10
6792;DHT22;3433;48.730;9.108;2023-07-13T03:57:13;20.10;84.30
6792;DHT22;3433;48.730;9.108;2023-07-13T04:00:00;20.10;84.20
6792;DHT22;3433;48.730;9.108;2023-07-13T04:02:47;20.20;84.70
6792;DHT22;3433;48.730;9.108;2023-07-13T04:05:35;20.20;84.30
6792;DHT22;3433;48.730;9.108;2023-07-13T04:08:22;20.30;84.30
6792;DHT22;3433;48.730;9.108;2023-07-13T04:11:11;20.30;84.50
6792;DHT22;3433;48.730;9.108;2023-07-13T04:13:59;20.30;84.90
6792;DHT22;3433;48.730;9.108;2023-07-13T04:16:46;20.30;83.80
6792;DHT22;3433;48.730;9.108;2023-07-13T04:19:33;20.30;84.20
6792;DHT22;3433;48.730;9.108;2023-07-13T04:22:21;20.30;84.30
6792;DHT22;3433;48.730;9.108;2023-07-13T04:25:08;20.30;83.90
6792;DHT22;3433;48.730;9.108;2023-07-13T04:27:57;20.30;83.80
6792;DHT22;3433;48.730;9.108;2023-07-13T04:30:44;20.30;83.90
6792;DHT22;3433;48.730;9.108;2023-07-13T04:33:31;20.30;83.90
6792;DHT22;3433;48.730;9.108;2023-07-13T04:36:19;20.40;83.70
6792;DHT22;3433;48.730;9.108;2023-07-13T04:39:07;20.40;83.90
6792;DHT22;3433;48.730;9.108;2023-07-13T04:41:54;20.50;84.30
6792;DHT22;3433;48.730;9.108;2023-07-13T04:44:47;20.40;84.00
6792;DHT22;3433;48.730;9.108;2023-07-13T04:47:34;20.40;84.00
6792;DHT22;3433;48.730;9.108;2023-07-13T04:50:22;20.40;84.00
6792;DHT22;3433;48.730;9.108;2023-07-13T04:53:09;20.50;84.20
6792;DHT22;3433;48.730;9.108;2023-07-13T04:55:57;20.50;84.10
6792;DHT22;3433;48.730;9.108;2023-07-13T04:58:44;20.50;84.20
6792;DHT22;3433;48.730;9.108;2023-07-13T05:01:33;20.50;83.90
6792;DHT22;3433;48.730;9.108;2023-07-13T05:04:20;20.50;84.10
6792;DHT22;3433;48.730;9.108;2023-07-13T05:07:07;20.50;84.10
6792;DHT22;3433;48.730;9.108;2023-07-13T05:09:54;20.50;84.20
6792;DHT22;3433;48.730;9.108;2023-07-13T05:12:41;20.50;83.80
6792;DHT22;3433;48.730;9.108;2023-07-13T05:15:29;20.50;84.00
6792;DHT22;3433;48.730;9.108;2023-07-13T05:18:17;20.50;84.90
6792;DHT22;3433;48.730;9.108;2023-07-13T05:21:07;20.60;83.90
6792;DHT22;3433;48.730;9.108;2023-07-13T05:23:54;20.70;83.90
6792;DHT22;3433;48.730;9.108;2023-07-13T05:26:41;20.70;83.80
6792;DHT22;3433;48.730;9.108;2023-07-13T05:29:28;20.70;83.60
6792;DHT22;3433;48.730;9.108;2023-07-13T05:32:17;20.80;83.60
6792;DHT22;3433;48.730;9.108;2023-07-13T05:35:07;20.70;83.40
6792;DHT22;3433;48.730;9.108;2023-07-13T05:37:54;20.70;83.30
6792;DHT22;3433;48.730;9.108;2023-07-13T05:40:42;20.90;83.10
6792;DHT22;3433;48.730;9.108;2023-07-13T05:43:29;20.80;82.90
6792;DHT22;3433;48.730;9.108;2023-07-13T05:46:17;20.80;82.50
6792;DHT22;3433;48.730;9.108;2023-07-13T05:49:04;20.80;82.60
6792;DHT22;3433;48.730;9.108;2023-07-13T05:51:52;20.80;82.60
6792;DHT22;3433;48.730;9.108;2023-07-13T05:54:40;20.90;82.20
6792;DHT22;3433;48.730;9.108;2023-07-13T05:57:27;21.00;82.10
6792;DHT22;3433;48.730;9.108;2023-07-13T06:00:15;20.90;82.20
6792;DHT22;3433;48.730;9.108;2023-07-13T06:03:02;20.90;82.30
6792;DHT22;3433;48.730;9.108;2023-07-13T06:05:49;21.00;82.40
6792;DHT22;3433;48.730;9.108;2023-07-13T06:08:38;21.00;82.00
6792;DHT22;3433;48.730;9.108;2023-07-13T06:11:27;21.00;82.20
6792;DHT22;3433;48.730;9.108;2023-07-13T06:14:15;21.20;82.50
6792;DHT22;3433;48.730;9.108;2023-07-13T06:17:03;21.30;82.40
6792;DHT22;3433;48.730;9.108;2023-07-13T06:19:50;21.30;82.00
6792;DHT22;3433;48.730;9.108;2023-07-13T06:22:37;21.40;81.60
6792;DHT22;3433;48.730;9.108;2023-07-13T06:25:26;21.50;81.50
6792;DHT22;3433;48.730;9.108;2023-07-13T06:28:13;21.60;81.40
6792;DHT22;3433;48.730;9.108;2023-07-13T06:31:01;21.70;81.00
6792;DHT22;3433;48.730;9.108;2023-07-13T06:33:49;21.80;80.80
6792;DHT22;3433;48.730;9.108;2023-07-13T06:36:36;22.00;80.60
6792;DHT22;3433;48.730;9.108;2023-07-13T06:39:24;22.00;80.10
6792;DHT22;3433;48.730;9.108;2023-07-13T06:42:13;22.20;80.20
6792;DHT22;3433;48.730;9.108;2023-07-13T06:45:00;22.30;80.00
6792;DHT22;3433;48.730;9.108;2023-07-13T06:47:47;22.30;79.60
6792;DHT22;3433;48.730;9.108;2023-07-13T06:50:35;22.50;79.70
6792;DHT22;3433;48.730;9.108;2023-07-13T06:53:23;22.50;79.50
6792;DHT22;3433;48.730;9.108;2023-07-13T06:56:10;22.70;78.30
6792;DHT22;3433;48.730;9.108;2023-07-13T06:58:59;22.70;77.30
6792;DHT22;3433;48.730;9.108;2023-07-13T07:01:46;22.80;78.20
6792;DHT22;3433;48.730;9.108;2023-07-13T07:04:33;22.90;77.70
6792;DHT22;3433;48.730;9.108;2023-07-13T07:07:23;22.90;79.10
6792;DHT22;3433;48.730;9.108;2023-07-13T07:10:11;23.10;78.90
6792;DHT22;3433;48.730;9.108;2023-07-13T07:12:58;23.20;77.60
6792;DHT22;3433;48.730;9.108;2023-07-13T07:15:46;23.30;77.80
6792;DHT22;3433;48.730;9.108;2023-07-13T07:18:34;23.40;76.10
6792;DHT22;3433;48.730;9.108;2023-07-13T07:21:21;23.50;77.30
6792;DHT22;3433;48.730;9.108;2023-07-13T07:24:09;23.60;76.80
6792;DHT22;3433;48.730;9.108;2023-07-13T07:26:57;23.70;76.40
6792;DHT22;3433;48.730;9.108;2023-07-13T07:29:44;23.80;76.80
6792;DHT22;3433;48.730;9.108;2023-07-13T07:32:33;24.00;74.60
6792;DHT22;3433;48.730;9.108;2023-07-13T07:35:20;24.20;77.10
6792;DHT22;3433;48.730;9.108;2023-07-13T07:38:07;24.30;75.70
6792;DHT22;3433;48.730;9.108;2023-07-13T07:40:55;24.70;77.00
6792;DHT22;3433;48.730;9.108;2023-07-13T07:43:42;25.00;76.80
6792;DHT22;3433;48.730;9.108;2023-07-13T07:46:30;25.10;74.60
6792;DHT22;3433;48.730;9.108;2023-07-13T07:49:18;25.10;72.90
6792;DHT22;3433;48.730;9.108;2023-07-13T07:52:07;25.00;74.40
6792;DHT22;3433;48.730;9.108;2023-07-13T07:54:54;25.20;73.80
6792;DHT22;3433;48.730;9.108;2023-07-13T07:57:41;25.30;74.30
6792;DHT22;3433;48.730;9.108;2023-07-13T08:00:28;25.30;73.70
6792;DHT22;3433;48.730;9.108;2023-07-13T08:03:17;25.30;74.00
6792;DHT22;3433;48.730;9.108;2023-07-13T08:06:06;25.50;71.00
6792;DHT22;3433;48.730;9.108;2023-07-13T08:08:53;25.60;72.60
6792;DHT22;3433;48.730;9.108;2023-07-13T08:11:40;25.50;71.10
6792;DHT22;3433;48.730;9.108;2023-07-13T08:14:27;25.60;72.20
6792;DHT22;3433;48.730;9.108;2023-07-13T08:17:15;25.60;68.50
6792;DHT22;3433;48.730;9.108;2023-07-13T08:20:03;25.80;71.90
6792;DHT22;3433;48.730;9.108;2023-07-13T08:22:52;26.00;70.60
6792;DHT22;3433;48.730;9.108;2023-07-13T08:25:39;26.20;69.00
6792;DHT22;3433;48.730;9.108;2023-07-13T08:28:27;26.20;71.50
6792;DHT22;3433;48.730;9.108;2023-07-13T08:31:14;26.10;68.70
6792;DHT22;3433;48.730;9.108;2023-07-13T08:34:02;26.00;69.80
6792;DHT22;3433;48.730;9.108;2023-07-13T08:36:49;26.10;71.10
6792;DHT22;3433;48.730;9.108;2023-07-13T08:39:38;26.30;71.10
6792;DHT22;3433;48.730;9.108;2023-07-13T08:42:33;26.00;69.40
6792;DHT22;3433;48.730;9.108;2023-07-13T08:45:25;26.10;71.10
6792;DHT22;3433;48.730;9.108;2023-07-13T08:48:20;26.30;68.50
6792;DHT22;3433;48.730;9.108;2023-07-13T08:51:21;26.30;68.30
6792;DHT22;3433;48.730;9.108;2023-07-13T08:54:20;26.30;68.90
6792;DHT22;3433;48.730;9.108;2023-07-13T08:57:13;26.30;68.60
6792;DHT22;3433;48.730;9.108;2023-07-13T09:00:01;26.50;67.50
6792;DHT22;3433;48.730;9.108;2023-07-13T09:02:55;26.10;67.50
6792;DHT22;3433;48.730;9.108;2023-07-13T09:05:43;26.30;64.90
6792;DHT22;3433;48.730;9.108;2023-07-13T09:08:44;26.20;65.80
6792;DHT22;3433;48.730;9.108;2023-07-13T09:11:45;26.40;66.80
6792;DHT22;3433;48.730;9.108;2023-07-13T09:14:41;26.40;67.20
6792;DHT22;3433;48.730;9.108;2023-07-13T09:17:32;25.90;67.80
6792;DHT22;3433;48.730;9.108;2023-07-13T09:20:27;26.40;67.80
6792;DHT22;3433;48.730;9.108;2023-07-13T09:23:22;26.40;65.40
6792;DHT22;3433;48.730;9.108;2023-07-13T09:26:12;26.20;67.10
6792;DHT22;3433;48.730;9.108;2023-07-13T09:29:10;26.50;65.10
6792;DHT22;3433;48.730;9.108;2023-07-13T09:32:03;26.50;66.90
6792;DHT22;3433;48.730;9.108;2023-07-13T09:34:51;26.40;67.30
6792;DHT22;3433;48.730;9.108;2023-07-13T09:37:40;26.30;66.40
6792;DHT22;3433;48.730;9.108;2023-07-13T09:40:38;26.70;67.40
6792;DHT22;3433;48.730;9.108;2023-07-13T09:43:27;27.00;65.00
6792;DHT22;3433;48.730;9.108;2023-07-13T09:46:20;27.00;66.30
6792;DHT22;3433;48.730;9.108;2023-07-13T09:49:11;27.20;67.20
6792;DHT22;3433;48.730;9.108;2023-07-13T09:51:59;27.60;67.60
6792;DHT22;3433;48.730;9.108;2023-07-13T09:54:50;27.80;67.00
6792;DHT22;3433;48.730;9.108;2023-07-13T09:57:46;27.50;65.50
6792;DHT22;3433;48.730;9.108;2023-07-13T10:00:34;27.30;64.60
6792;DHT22;3433;48.730;9.108;2023-07-13T10:03:25;26.80;64.30
6792;DHT22;3433;48.730;9.108;2023-07-13T10:06:16;26.70;63.90
6792;DHT22;3433;48.730;9.108;2023-07-13T10:09:07;26.70;64.80
6792;DHT22;3433;48.730;9.108;2023-07-13T10:11:54;26.80;66.00
6792;DHT22;3433;48.730;9.108;2023-07-13T10:14:42;27.00;66.70
6792;DHT22;3433;48.730;9.108;2023-07-13T10:17:31;27.20;64.90
6792;DHT22;3433;48.730;9.108;2023-07-13T10:20:20;27.00;66.00
6792;DHT22;3433;48.730;9.108;2023-07-13T10:23:13;27.10;65.20
6792;DHT22;3433;48.730;9.108;2023-07-13T10:26:03;27.20;66.00
6792;DHT22;3433;48.730;9.108;2023-07-13T10:28:54;27.10;65.00
6792;DHT22;3433;48.730;9.108;2023-07-13T10:31:45;27.10;66.10
6792;DHT22;3433;48.730;9.108;2023-07-13T10:34:32;27.10;63.40
6792;DHT22;3433;48.730;9.108;2023-07-13T10:37:22;27.10;66.00
6792;DHT22;3433;48.730;9.108;2023-07-13T10:40:17;27.10;64.00
6792;DHT22;3433;48.730;9.108;2023-07-13T10:43:11;26.90;63.20
6792;DHT22;3433;48.730;9.108;2023-07-13T10:46:02;26.90;65.60
6792;DHT22;3433;48.730;9.108;2023-07-13T10:48:54;26.90;64.90
6792;DHT22;3433;48.730;9.108;2023-07-13T10:51:42;26.70;65.10
6792;DHT22;3433;48.730;9.108;2023-07-13T10:54:32;26.70;65.90
6792;DHT22;3433;48.730;9.108;2023-07-13T10:57:21;26.80;66.00
6792;DHT22;3433;48.730;9.108;2023-07-13T11:00:16;27.10;65.00
6792;DHT22;3433;48.730;9.108;2023-07-13T11:03:04;27.30;64.90
6792;DHT22;3433;48.730;9.108;2023-07-13T11:06:15;27.50;64.80
6792;DHT22;3433;48.730;9.108;2023-07-13T11:09:18;27.60;64.20
6792;DHT22;3433;48.730;9.108;2023-07-13T11:12:09;27.90;64.80
6792;DHT22;3433;48.730;9.108;2023-07-13T11:15:11;28.40;64.80
6792;DHT22;3433;48.730;9.108;2023-07-13T11:18:02;28.60;62.80
6792;DHT22;3433;48.730;9.108;2023-07-13T11:20:50;28.70;64.30
6792;DHT22;3433;48.730;9.108;2023-07-13T11:23:42;29.00;65.40
6792;DHT22;3433;48.730;9.108;2023-07-13T11:26:40;29.30;64.80
6792;DHT22;3433;48.730;9.108;2023-07-13T11:29:36;29.40;63.90
6792;DHT22;3433;48.730;9.108;2023-07-13T11:32:30;29.70;63.50
6792;DHT22;3433;48.730;9.108;2023-07-13T11:35:22;29.90;62.90
6792;DHT22;3433;48.730;9.108;2023-07-13T11:38:16;29.90;62.50
6792;DHT22;3433;48.730;9.108;2023-07-13T11:41:05;30.10;61.60
6792;DHT22;3433;48.730;9.108;2023-07-13T11:43:55;30.20;63.70
6792;DHT22;3433;48.730;9.108;2023-07-13T11:46:46;29.90;62.10
6792;DHT22;3433;48.730;9.108;2023-07-13T11:49:48;29.90;61.10
6792;DHT22;3433;48.730;9.108;2023-07-13T11:52:36;29.80;59.80
6792;DHT22;3433;48.730;9.108;2023-07-13T11:55:24;30.00;62.70
6792;DHT22;3433;48.730;9.108;2023-07-13T11:58:19;30.20;61.90
6792;DHT22;3433;48.730;9.108;2023-07-13T12:01:17;30.00;62.60
6792;DHT22;3433;48.730;9.108;2023-07-13T12:04:05;29.40;60.40
6792;DHT22;3433;48.730;9.108;2023-07-13T12:06:57;29.40;62.40
6792;DHT22;3433;48.730;9.108;2023-07-13T12:09:45;29.60;61.90
6792;DHT22;3433;48.730;9.108;2023-07-13T12:12:33;29.30;61.20
6792;DHT22;3433;48.730;9.108;2023-07-13T12:15:20;28.90;61.00
6792;DHT22;3433;48.730;9.108;2023-07-13T12:18:13;29.30;61.30
6792;DHT22;3433;48.730;9.108;2023-07-13T12:21:00;29.30;56.80
6792;DHT22;3433;48.730;9.108;2023-07-13T12:23:50;29.60;60.20
6792;DHT22;3433;48.730;9.108;2023-07-13T12:26:38;29.90;59.70
6792;DHT22;3433;48.730;9.108;2023-07-13T12:29:25;29.80;57.50
6792;DHT22;3433;48.730;9.108;2023-07-13T12:32:17;29.60;56.20
6792;DHT22;3433;48.730;9.108;2023-07-13T12:35:14;29.90;58.80
6792;DHT22;3433;48.730;9.108;2023-07-13T12:38:01;29.80;57.20
6792;DHT22;3433;48.730;9.108;2023-07-13T12:40:51;30.20;59.60
6792;DHT22;3433;48.730;9.108;2023-07-13T12:43:39;30.40;59.30
6792;DHT22;3433;48.730;9.108;2023-07-13T12:46:27;30.80;58.00
6792;DHT22;3433;48.730;9.108;2023-07-13T12:49:15;31.00;58.60
6792;DHT22;3433;48.730;9.108;2023-07-13T12:52:09;31.10;53.80
6792;DHT22;3433;48.730;9.108;2023-07-13T12:55:04;30.70;54.00
6792;DHT22;3433;48.730;9.108;2023-07-13T12:57:56;30.70;55.90
6792;DHT22;3433;48.730;9.108;2023-07-13T13:00:49;30.70;57.10
6792;DHT22;3433;48.730;9.108;2023-07-13T13:03:39;30.90;57.00
6792;DHT22;3433;48.730;9.108;2023-07-13T13:06:28;31.10;57.40
6792;DHT22;3433;48.730;9.108;2023-07-13T13:09:17;30.70;54.00
6792;DHT22;3433;48.730;9.108;2023-07-13T13:12:07;31.00;56.40
6792;DHT22;3433;48.730;9.108;2023-07-13T13:14:56;31.30;56.90
6792;DHT22;3433;48.730;9.108;2023-07-13T13:17:43;31.50;57.00
6792;DHT22;3433;48.730;9.108;2023-07-13T13:20:30;31.50;56.60
6792;DHT22;3433;48.730;9.108;2023-07-13T13:23:19;31.50;54.80
6792;DHT22;3433;48.730;9.108;2023-07-13T13:26:10;31.30;55.20
6792;DHT22;3433;48.730;9.108;2023-07-13T13:28:58;31.20;55.40
6792;DHT22;3433;48.730;9.108;2023-07-13T13:31:47;31.30;55.60
6792;DHT22;3433;48.730;9.108;2023-07-13T13:34:34;31.30;53.30
6792;DHT22;3433;48.730;9.108;2023-07-13T13:37:23;30.90;51.70
6792;DHT22;3433;48.730;9.108;2023-07-13T13:40:15;30.50;54.30
6792;DHT22;3433;48.730;9.108;2023-07-13T13:43:08;30.10;55.50
6792;DHT22;3433;48.730;9.108;2023-07-13T13:46:00;29.90;55.50
6792;DHT22;3433;48.730;9.108;2023-07-13T13:48:49;29.70;55.60
6792;DHT22;3433;48.730;9.108;2023-07-13T13:51:36;29.70;54.50
6792;DHT22;3433;48.730;9.108;2023-07-13T13:54:24;29.40;53.50
6792;DHT22;3433;48.730;9.108;2023-07-13T13:57:12;29.30;55.90
6792;DHT22;3433;48.730;9.108;2023-07-13T13:59:59;29.30;56.20
6792;DHT22;3433;48.730;9.108;2023-07-13T14:02:47;29.10;56.40
6792;DHT22;3433;48.730;9.108;2023-07-13T14:05:38;29.10;54.40
6792;DHT22;3433;48.730;9.108;2023-07-13T14:08:28;29.00;55.80
6792;DHT22;3433;48.730;9.108;2023-07-13T14:11:17;28.80;56.10
6792;DHT22;3433;48.730;9.108;2023-07-13T14:14:05;29.10;56.70
6792;DHT22;3433;48.730;9.108;2023-07-13T14:16:53;29.20;56.20
6792;DHT22;3433;48.730;9.108;2023-07-13T14:19:42;29.10;55.90
6792;DHT22;3433;48.730;9.108;2023-07-13T14:22:30;29.20;55.90
6792;DHT22;3433;48.730;9.108;2023-07-13T14:25:19;29.20;56.20
6792;DHT22;3433;48.730;9.108;2023-07-13T14:28:21;29.50;55.80
6792;DHT22;3433;48.730;9.108;2023-07-13T14:31:09;29.70;55.70
6792;DHT22;3433;48.730;9.108;2023-07-13T14:33:57;29.90;55.80
6792;DHT22;3433;48.730;9.108;2023-07-13T14:36:46;30.10;55.20
6792;DHT22;3433;48.730;9.108;2023-07-13T14:39:36;30.40;55.60
6792;DHT22;3433;48.730;9.108;2023-07-13T14:42:24;30.30;53.30
6792;DHT22;3433;48.730;9.108;2023-07-13T14:45:13;30.50;54.60
6792;DHT22;3433;48.730;9.108;2023-07-13T14:48:01;30.70;54.50
6792;DHT22;3433;48.730;9.108;2023-07-13T14:50:53;30.60;55.10
6792;DHT22;3433;48.730;9.108;2023-07-13T14:53:40;30.40;55.10
6792;DHT22;3433;48.730;9.108;2023-07-13T14:56:29;30.00;54.80
6792;DHT22;3433;48.730;9.108;2023-07-13T14:59:16;30.40;55.30
6792;DHT22;3433;48.730;9.108;2023-07-13T15:02:15;30.50;54.50
6792;DHT22;3433;48.730;9.108;2023-07-13T15:05:11;30.20;54.50
6792;DHT22;3433;48.730;9.108;2023-07-13T15:08:00;30.30;53.60
6792;DHT22;3433;48.730;9.108;2023-07-13T15:10:48;30.40;54.30
6792;DHT22;3433;48.730;9.108;2023-07-13T15:13:37;30.40;54.90
6792;DHT22;3433;48.730;9.108;2023-07-13T15:16:25;30.40;54.30
6792;DHT22;3433;48.730;9.108;2023-07-13T15:19:13;30.80;54.40
6792;DHT22;3433;48.730;9.108;2023-07-13T15:22:00;30.40;52.30
6792;DHT22;3433;48.730;9.108;2023-07-13T15:24:47;30.20;54.10
6792;DHT22;3433;48.730;9.108;2023-07-13T15:27:34;30.30;55.10
6792;DHT22;3433;48.730;9.108;2023-07-13T15:30:26;29.90;53.60
6792;DHT22;3433;48.730;9.108;2023-07-13T15:33:16;29.90;55.60
6792;DHT22;3433;48.730;9.108;2023-07-13T15:36:04;29.50;54.10
6792;DHT22;3433;48.730;9.108;2023-07-13T15:38:54;29.80;54.00
6792;DHT22;3433;48.730;9.108;2023-07-13T15:41:42;29.90;54.40
6792;DHT22;3433;48.730;9.108;2023-07-13T15:44:31;29.90;53.90
6792;DHT22;3433;48.730;9.108;2023-07-13T15:47:20;30.20;55.20
6792;DHT22;3433;48.730;9.108;2023-07-13T15:50:12;30.30;54.60
6792;DHT22;3433;48.730;9.108;2023-07-13T15:52:59;30.10;54.00
6792;DHT22;3433;48.730;9.108;2023-07-13T15:55:48;29.70;53.50
6792;DHT22;3433;48.730;9.108;2023-07-13T15:58:36;29.70;54.10
6792;DHT22;3433;48.730;9.108;2023-07-13T16:01:24;29.90;54.00
6792;DHT22;3433;48.730;9.108;2023-07-13T16:04:12;29.90;53.60
6792;DHT22;3433;48.730;9.108;2023-07-13T16:07:00;29.80;53.30
6792;DHT22;3433;48.730;9.108;2023-07-13T16:09:47;29.80;53.10
6792;DHT22;3433;48.730;9.108;2023-07-13T16:12:34;29.50;53.60
6792;DHT22;3433;48.730;9.108;2023-07-13T16:15:22;29.40;53.40
6792;DHT22;3433;48.730;9.108;2023-07-13T16:18:10;29.60;53.90
6792;DHT22;3433;48.730;9.108;2023-07-13T16:20:59;29.50;53.00
6792;DHT22;3433;48.730;9.108;2023-07-13T16:23:46;29.50;54.20
6792;DHT22;3433;48.730;9.108;2023-07-13T16:26:35;29.70;54.00
6792;DHT22;3433;48.730;9.108;2023-07-13T16:29:27;29.20;53.00
6792;DHT22;3433;48.730;9.108;2023-07-13T16:32:15;29.50;54.20
6792;DHT22;3433;48.730;9.108;2023-07-13T16:35:03;29.50;54.00
6792;DHT22;3433;48.730;9.108;2023-07-13T16:37:53;29.40;53.60
6792;DHT22;3433;48.730;9.108;2023-07-13T16:40:41;29.20;53.60
6792;DHT22;3433;48.730;9.108;2023-07-13T16:43:28;29.30;54.00
6792;DHT22;3433;48.730;9.108;2023-07-13T16:46:21;29.10;55.20
6792;DHT22;3433;48.730;9.108;2023-07-13T16:49:21;29.10;54.60
6792;DHT22;3433;48.730;9.108;2023-07-13T16:52:11;29.20;54.20
6792;DHT22;3433;48.730;9.108;2023-07-13T16:55:00;29.30;54.30
6792;DHT22;3433;48.730;9.108;2023-07-13T16:57:47;29.20;54.30
6792;DHT22;3433;48.730;9.108;2023-07-13T17:00:35;29.00;53.80
6792;DHT22;3433;48.730;9.108;2023-07-13T17:03:23;28.80;54.30
6792;DHT22;3433;48.730;9.108;2023-07-13T17:06:22;28.70;54.50
6792;DHT22;3433;48.730;9.108;2023-07-13T17:09:11;28.50;54.60
6792;DHT22;3433;48.730;9.108;2023-07-13T17:12:00;28.40;54.70
6792;DHT22;3433;48.730;9.108;2023-07-13T17:14:47;28.40;55.10
6792;DHT22;3433;48.730;9.108;2023-07-13T17:17:36;28.30;55.50
6792;DHT22;3433;48.730;9.108;2023-07-13T17:20:30;28.00;53.80
6792;DHT22;3433;48.730;9.108;2023-07-13T17:23:24;27.70;55.00
6792;DHT22;3433;48.730;9.108;2023-07-13T17:26:11;27.60;55.10
6792;DHT22;3433;48.730;9.108;2023-07-13T17:29:01;27.60;55.70
6792;DHT22;3433;48.730;9.108;2023-07-13T17:31:49;27.60;55.60
6792;DHT22;3433;48.730;9.108;2023-07-13T17:34:37;27.50;55.90
6792;DHT22;3433;48.730;9.108;2023-07-13T17:37:30;27.60;56.10
6792;DHT22;3433;48.730;9.108;2023-07-13T17:40:18;27.30;55.40
6792;DHT22;3433;48.730;9.108;2023-07-13T17:43:06;27.20;55.90
6792;DHT22;3433;48.730;9.108;2023-07-13T17:45:56;27.10;55.80
6792;DHT22;3433;48.730;9.108;2023-07-13T17:48:45;27.00;56.30
6792;DHT22;3433;48.730;9.108;2023-07-13T17:51:33;26.70;56.10
6792;DHT22;3433;48.730;9.108;2023-07-13T17:54:23;26.80;56.70
6792;DHT22;3433;48.730;9.108;2023-07-13T17:57:11;26.80;56.90
6792;DHT22;3433;48.730;9.108;2023-07-13T17:59:58;26.70;56.90
6792;DHT22;3433;48.730;9.108;2023-07-13T18:02:48;26.60;56.80
6792;DHT22;3433;48.730;9.108;2023-07-13T18:05:36;26.50;57.00
6792;DHT22;3433;48.730;9.108;2023-07-13T18:08:26;26.40;57.10
6792;DHT22;3433;48.730;9.108;2023-07-13T18:11:15;26.30;57.10
6792;DHT22;3433;48.730;9.108;2023-07-13T18:14:02;26.30;57.30
6792;DHT22;3433;48.730;9.108;2023-07-13T18:16:54;26.00;57.30
6792;DHT22;3433;48.730;9.108;2023-07-13T18:19:45;26.00;57.40
6792;DHT22;3433;48.730;9.108;2023-07-13T18:22:35;26.00;57.50
6792;DHT22;3433;48.730;9.108;2023-07-13T18:25:23;26.00;57.70